sensor_id;sensor_type;location;lat;lon;timestamp;pressure;altitude;pressure_sealevel;temperature;humidity
67545;BME280;54380;47.770;11.150;2023-03-21T00:00:42;95050.78;;;9.82;57.15
67545;BME280;54380;47.770;11.150;2023-03-21T00:03:09;95044.66;;;9.76;57.21
67545;BME280;54380;47.770;11.150;2023-03-21T00:05:38;95047.78;;;9.73;57.92
67545;BME280;54380;47.770;11.150;2023-03-21T00:08:07;95043.56;;;9.72;57.48
67545;BME280;54380;47.770;11.150;2023-03-21T00:10:33;95042.75;;;9.72;57.85
67545;BME280;54380;47.770;11.150;2023-03-21T00:13:11;95042.50;;;9.73;57.95
67545;BME280;54380;47.770;11.150;2023-03-21T00:15:39;95034.59;;;9.73;57.67
67545;BME280;54380;47.770;11.150;2023-03-21T00:18:30;95039.38;;;9.76;57.47
67545;BME280;54380;47.770;11.150;2023-03-21T00:20:57;95029.31;;;9.73;57.88
67545;BME280;54380;47.770;11.150;2023-03-21T00:23:45;95033.41;;;9.64;57.50
67545;BME280;54380;47.770;11.150;2023-03-21T00:26:12;95032.19;;;9.55;57.83
67545;BME280;54380;47.770;11.150;2023-03-21T00:28:42;95027.56;;;9.45;57.63
67545;BME280;54380;47.770;11.150;2023-03-21T00:31:09;95026.69;;;9.39;57.95
67545;BME280;54380;47.770;11.150;2023-03-21T00:33:36;95021.91;;;9.36;57.89
67545;BME280;54380;47.770;11.150;2023-03-21T00:36:05;95016.88;;;9.35;57.59
67545;BME280;54380;47.770;11.150;2023-03-21T00:38:33;95024.78;;;9.35;58.37
67545;BME280;54380;47.770;11.150;2023-03-21T00:41:02;95021.09;;;9.36;58.23
67545;BME280;54380;47.770;11.150;2023-03-21T00:43:44;95018.16;;;9.32;58.65
67545;BME280;54380;47.770;11.150;2023-03-21T00:46:11;95012.63;;;9.34;58.19
67545;BME280;54380;47.770;11.150;2023-03-21T00:48:38;95014.00;;;9.36;58.23
67545;BME280;54380;47.770;11.150;2023-03-21T00:51:11;95012.72;;;9.39;58.44
67545;BME280;54380;47.770;11.150;2023-03-21T00:53:41;95006.16;;;9.41;58.30
67545;BME280;54380;47.770;11.150;2023-03-21T00:56:08;95005.69;;;9.44;58.71
67545;BME280;54380;47.770;11.150;2023-03-21T00:58:35;95003.31;;;9.43;58.48
67545;BME280;54380;47.770;11.150;2023-03-21T01:01:03;95001.94;;;9.40;58.39
67545;BME280;54380;47.770;11.150;2023-03-21T01:03:32;94994.53;;;9.37;58.24
67545;BME280;54380;47.770;11.150;2023-03-21T01:06:10;94993.19;;;9.35;58.33
67545;BME280;54380;47.770;11.150;2023-03-21T01:08:41;94987.34;;;9.33;58.44
67545;BME280;54380;47.770;11.150;2023-03-21T01:11:23;94993.63;;;9.32;58.49
67545;BME280;54380;47.770;11.150;2023-03-21T01:13:51;94997.09;;;9.32;58.74
67545;BME280;54380;47.770;11.150;2023-03-21T01:16:34;94996.25;;;9.32;58.43
67545;BME280;54380;47.770;11.150;2023-03-21T01:19:03;94991.25;;;9.30;58.94
67545;BME280;54380;47.770;11.150;2023-03-21T01:21:37;94986.22;;;9.29;58.79
67545;BME280;54380;47.770;11.150;2023-03-21T01:24:05;94985.41;;;9.28;58.64
67545;BME280;54380;47.770;11.150;2023-03-21T01:26:34;94983.25;;;9.25;58.57
67545;BME280;54380;47.770;11.150;2023-03-21T01:29:03;94980.84;;;9.23;58.92
67545;BME280;54380;47.770;11.150;2023-03-21T01:31:33;94981.66;;;9.24;59.46
67545;BME280;54380;47.770;11.150;2023-03-21T01:34:00;94979.50;;;9.21;59.38
67545;BME280;54380;47.770;11.150;2023-03-21T01:36:27;94982.91;;;9.21;59.01
67545;BME280;54380;47.770;11.150;2023-03-21T01:39:02;94968.47;;;9.24;58.60
67545;BME280;54380;47.770;11.150;2023-03-21T01:41:30;94968.47;;;9.24;59.26
67545;BME280;54380;47.770;11.150;2023-03-21T01:44:16;94966.91;;;9.23;59.17
67545;BME280;54380;47.770;11.150;2023-03-21T01:46:46;94956.84;;;9.20;59.12
67545;BME280;54380;47.770;11.150;2023-03-21T01:49:45;94949.09;;;9.13;59.38
67545;BME280;54380;47.770;11.150;2023-03-21T01:52:28;94945.34;;;9.09;59.71
67545;BME280;54380;47.770;11.150;2023-03-21T01:55:10;94950.84;;;9.08;59.39
67545;BME280;54380;47.770;11.150;2023-03-21T01:58:18;94945.34;;;9.09;59.23
67545;BME280;54380;47.770;11.150;2023-03-21T02:01:04;94945.91;;;9.11;59.59
67545;BME280;54380;47.770;11.150;2023-03-21T02:03:44;94942.81;;;9.14;59.72
67545;BME280;54380;47.770;11.150;2023-03-21T02:06:41;94941.75;;;9.15;59.30
67545;BME280;54380;47.770;11.150;2023-03-21T02:09:30;94939.13;;;9.15;59.05
67545;BME280;54380;47.770;11.150;2023-03-21T02:11:59;94938.88;;;9.17;59.62
67545;BME280;54380;47.770;11.150;2023-03-21T02:14:31;94942.09;;;9.19;59.73
67545;BME280;54380;47.770;11.150;2023-03-21T02:17:25;94948.47;;;9.23;59.79
67545;BME280;54380;47.770;11.150;2023-03-21T02:20:24;94942.22;;;9.29;59.42
67545;BME280;54380;47.770;11.150;2023-03-21T02:26:18;94945.19;;;9.33;59.35
67545;BME280;54380;47.770;11.150;2023-03-21T02:29:29;94947.34;;;9.36;58.59
67545;BME280;54380;47.770;11.150;2023-03-21T02:32:09;94939.75;;;9.39;58.44
67545;BME280;54380;47.770;11.150;2023-03-21T02:37:52;94938.66;;;9.35;58.99
67545;BME280;54380;47.770;11.150;2023-03-21T02:40:31;94939.38;;;9.31;58.61
67545;BME280;54380;47.770;11.150;2023-03-21T02:43:06;94940.41;;;9.30;58.46
67545;BME280;54380;47.770;11.150;2023-03-21T02:45:49;94941.69;;;9.27;59.38
67545;BME280;54380;47.770;11.150;2023-03-21T02:48:21;94939.06;;;9.27;58.86
67545;BME280;54380;47.770;11.150;2023-03-21T02:51:01;94951.19;;;9.28;58.84
67545;BME280;54380;47.770;11.150;2023-03-21T02:53:38;94934.88;;;9.31;58.70
67545;BME280;54380;47.770;11.150;2023-03-21T02:56:08;94935.69;;;9.32;58.90
67545;BME280;54380;47.770;11.150;2023-03-21T02:58:41;94933.03;;;9.32;58.92
67545;BME280;54380;47.770;11.150;2023-03-21T03:01:09;94938.56;;;9.30;58.59
67545;BME280;54380;47.770;11.150;2023-03-21T03:03:41;94930.66;;;9.30;59.03
67545;BME280;54380;47.770;11.150;2023-03-21T03:06:15;94924.34;;;9.31;58.89
67545;BME280;54380;47.770;11.150;2023-03-21T03:08:55;94931.47;;;9.31;58.94
67545;BME280;54380;47.770;11.150;2023-03-21T03:11:32;94932.72;;;9.28;58.81
67545;BME280;54380;47.770;11.150;2023-03-21T03:14:23;94934.31;;;9.29;58.91
67545;BME280;54380;47.770;11.150;2023-03-21T03:17:21;94930.19;;;9.16;59.21
67545;BME280;54380;47.770;11.150;2023-03-21T03:20:01;94934.03;;;9.09;59.00
67545;BME280;54380;47.770;11.150;2023-03-21T03:22:48;94931.53;;;9.02;59.77
67545;BME280;54380;47.770;11.150;2023-03-21T03:25:23;94926.75;;;8.99;59.83
67545;BME280;54380;47.770;11.150;2023-03-21T03:28:08;94925.63;;;8.95;59.48
67545;BME280;54380;47.770;11.150;2023-03-21T03:30:38;94929.00;;;8.90;59.57
67545;BME280;54380;47.770;11.150;2023-03-21T03:33:19;94932.06;;;8.87;59.78
67545;BME280;54380;47.770;11.150;2023-03-21T03:35:49;94930.75;;;8.85;60.16
67545;BME280;54380;47.770;11.150;2023-03-21T03:38:31;94925.13;;;8.81;60.01
67545;BME280;54380;47.770;11.150;2023-03-21T03:41:07;94932.72;;;8.77;60.15
67545;BME280;54380;47.770;11.150;2023-03-21T03:43:46;94925.31;;;8.74;60.57
67545;BME280;54380;47.770;11.150;2023-03-21T03:46:18;94934.00;;;8.75;60.55
67545;BME280;54380;47.770;11.150;2023-03-21T03:48:53;94929.75;;;8.74;61.15
67545;BME280;54380;47.770;11.150;2023-03-21T03:51:23;94929.75;;;8.74;60.21
67545;BME280;54380;47.770;11.150;2023-03-21T03:54:12;94926.66;;;8.77;60.05
67545;BME280;54380;47.770;11.150;2023-03-21T03:56:42;94926.97;;;8.81;60.48
67545;BME280;54380;47.770;11.150;2023-03-21T03:59:14;94932.06;;;8.87;59.93
67545;BME280;54380;47.770;11.150;2023-03-21T04:01:57;94929.06;;;8.95;60.58
67545;BME280;54380;47.770;11.150;2023-03-21T04:04:23;94933.84;;;8.98;60.40
67545;BME280;54380;47.770;11.150;2023-03-21T04:06:56;94931.53;;;9.02;59.72
67545;BME280;54380;47.770;11.150;2023-03-21T04:09:24;94930.81;;;9.07;60.04
67545;BME280;54380;47.770;11.150;2023-03-21T04:12:10;94932.19;;;9.09;59.57
67545;BME280;54380;47.770;11.150;2023-03-21T04:14:40;94926.13;;;9.09;59.61
67545;BME280;54380;47.770;11.150;2023-03-21T04:17:18;94926.91;;;9.09;59.35
67545;BME280;54380;47.770;11.150;2023-03-21T04:19:47;94922.94;;;9.07;60.39
67545;BME280;54380;47.770;11.150;2023-03-21T04:22:23;94917.59;;;9.01;59.89
67545;BME280;54380;47.770;11.150;2023-03-21T04:24:51;94918.53;;;8.95;60.53
67545;BME280;54380;47.770;11.150;2023-03-21T04:27:20;94922.91;;;8.90;60.29
67545;BME280;54380;47.770;11.150;2023-03-21T04:30:06;94926.28;;;8.85;60.54
67545;BME280;54380;47.770;11.150;2023-03-21T04:32:43;94923.63;;;8.85;60.43
67545;BME280;54380;47.770;11.150;2023-03-21T04:35:13;94927.28;;;8.84;60.35
67545;BME280;54380;47.770;11.150;2023-03-21T04:37:41;94929.38;;;8.82;60.20
67545;BME280;54380;47.770;11.150;2023-03-21T04:40:12;94925.53;;;8.90;59.93
67545;BME280;54380;47.770;11.150;2023-03-21T04:42:46;94921.72;;;8.97;59.90
67545;BME280;54380;47.770;11.150;2023-03-21T04:45:14;94923.91;;;9.00;59.58
67545;BME280;54380;47.770;11.150;2023-03-21T04:47:44;94924.91;;;8.99;60.10
67545;BME280;54380;47.770;11.150;2023-03-21T04:50:11;94920.91;;;8.97;59.53
67545;BME280;54380;47.770;11.150;2023-03-21T04:52:39;94925.41;;;8.96;59.61
67545;BME280;54380;47.770;11.150;2023-03-21T04:55:07;94926.97;;;8.97;59.99
67545;BME280;54380;47.770;11.150;2023-03-21T04:57:37;94925.97;;;8.98;60.20
67545;BME280;54380;47.770;11.150;2023-03-21T05:00:09;94922.06;;;9.01;59.87
67545;BME280;54380;47.770;11.150;2023-03-21T05:02:37;94925.25;;;9.03;59.83
67545;BME280;54380;47.770;11.150;2023-03-21T05:05:05;94919.16;;;9.02;59.31
67545;BME280;54380;47.770;11.150;2023-03-21T05:07:37;94921.31;;;9.06;59.45
67545;BME280;54380;47.770;11.150;2023-03-21T05:10:07;94915.59;;;9.09;59.10
67545;BME280;54380;47.770;11.150;2023-03-21T05:12:34;94915.03;;;9.07;59.57
67545;BME280;54380;47.770;11.150;2023-03-21T05:15:01;94919.72;;;9.05;59.53
67545;BME280;54380;47.770;11.150;2023-03-21T05:17:29;94922.84;;;9.01;59.86
67545;BME280;54380;47.770;11.150;2023-03-21T05:19:57;94918.53;;;8.95;59.15
67545;BME280;54380;47.770;11.150;2023-03-21T05:22:24;94918.47;;;8.90;59.71
67545;BME280;54380;47.770;11.150;2023-03-21T05:24:52;94913.09;;;8.85;59.67
67545;BME280;54380;47.770;11.150;2023-03-21T05:27:34;94915.66;;;8.80;60.01
67545;BME280;54380;47.770;11.150;2023-03-21T05:30:10;94910.88;;;8.77;59.93
67545;BME280;54380;47.770;11.150;2023-03-21T05:32:38;94919.78;;;8.76;59.88
67545;BME280;54380;47.770;11.150;2023-03-21T05:35:09;94915.00;;;8.73;60.10
67545;BME280;54380;47.770;11.150;2023-03-21T05:37:36;94915.56;;;8.75;59.83
67545;BME280;54380;47.770;11.150;2023-03-21T05:40:06;94926.19;;;8.80;59.88
67545;BME280;54380;47.770;11.150;2023-03-21T05:42:35;94921.78;;;8.86;60.29
67545;BME280;54380;47.770;11.150;2023-03-21T05:45:13;94919.47;;;8.89;59.95
67545;BME280;54380;47.770;11.150;2023-03-21T05:47:42;94923.25;;;8.93;59.62
67545;BME280;54380;47.770;11.150;2023-03-21T05:50:11;94921.72;;;8.97;60.14
67545;BME280;54380;47.770;11.150;2023-03-21T05:52:41;94924.34;;;8.97;60.04
67545;BME280;54380;47.770;11.150;2023-03-21T05:55:12;94924.91;;;8.99;60.20
67545;BME280;54380;47.770;11.150;2023-03-21T05:57:38;94932.59;;;9.01;59.22
67545;BME280;54380;47.770;11.150;2023-03-21T06:00:16;94925.16;;;8.98;59.95
67545;BME280;54380;47.770;11.150;2023-03-21T06:03:00;94915.34;;;8.93;60.15
67545;BME280;54380;47.770;11.150;2023-03-21T06:05:56;94913.09;;;8.85;60.16
67545;BME280;54380;47.770;11.150;2023-03-21T06:08:27;94918.59;;;8.84;60.25
67545;BME280;54380;47.770;11.150;2023-03-21T06:10:54;94917.31;;;8.86;60.50
67545;BME280;54380;47.770;11.150;2023-03-21T06:13:22;94919.47;;;8.89;60.57
67545;BME280;54380;47.770;11.150;2023-03-21T06:15:48;94925.53;;;8.90;61.16
67545;BME280;54380;47.770;11.150;2023-03-21T06:18:20;94920.03;;;8.91;60.55
67545;BME280;54380;47.770;11.150;2023-03-21T06:20:55;94917.19;;;8.93;61.06
67545;BME280;54380;47.770;11.150;2023-03-21T06:23:23;94922.19;;;8.94;60.42
67545;BME280;54380;47.770;11.150;2023-03-21T06:25:50;94919.91;;;8.98;60.05
67545;BME280;54380;47.770;11.150;2023-03-21T06:28:17;94923.16;;;9.05;60.00
67545;BME280;54380;47.770;11.150;2023-03-21T06:30:43;94923.81;;;9.12;59.77
67545;BME280;54380;47.770;11.150;2023-03-21T06:33:15;94930.50;;;9.20;59.76
67545;BME280;54380;47.770;11.150;2023-03-21T06:35:49;94930.66;;;9.30;59.32
67545;BME280;54380;47.770;11.150;2023-03-21T06:38:17;94935.75;;;9.37;59.72
67545;BME280;54380;47.770;11.150;2023-03-21T06:40:44;94931.34;;;9.42;59.61
67545;BME280;54380;47.770;11.150;2023-03-21T06:43:11;94926.41;;;9.46;59.09
67545;BME280;54380;47.770;11.150;2023-03-21T06:45:38;94936.47;;;9.49;59.33
67545;BME280;54380;47.770;11.150;2023-03-21T06:48:08;94933.34;;;9.52;59.37
67545;BME280;54380;47.770;11.150;2023-03-21T06:50:49;94935.50;;;9.55;59.33
67545;BME280;54380;47.770;11.150;2023-03-21T06:53:20;94936.63;;;9.59;58.94
67545;BME280;54380;47.770;11.150;2023-03-21T06:56:10;94931.66;;;9.63;59.06
67545;BME280;54380;47.770;11.150;2023-03-21T06:58:39;94932.78;;;9.67;59.67
67545;BME280;54380;47.770;11.150;2023-03-21T07:01:11;94934.34;;;9.68;59.71
67545;BME280;54380;47.770;11.150;2023-03-21T07:03:50;94942.75;;;9.65;59.76
67545;BME280;54380;47.770;11.150;2023-03-21T07:06:22;94940.59;;;9.62;59.39
67545;BME280;54380;47.770;11.150;2023-03-21T07:08:53;94936.34;;;9.61;60.39
67545;BME280;54380;47.770;11.150;2023-03-21T07:11:21;94941.41;;;9.62;59.86
67545;BME280;54380;47.770;11.150;2023-03-21T07:13:49;94934.06;;;9.64;60.01
67545;BME280;54380;47.770;11.150;2023-03-21T07:16:17;94940.91;;;9.65;59.89
67545;BME280;54380;47.770;11.150;2023-03-21T07:18:44;94938.59;;;9.69;60.19
67545;BME280;54380;47.770;11.150;2023-03-21T07:21:12;94934.91;;;9.70;59.98
67545;BME280;54380;47.770;11.150;2023-03-21T07:23:40;94933.41;;;9.74;60.54
67545;BME280;54380;47.770;11.150;2023-03-21T07:26:07;94940.34;;;9.80;60.17
67545;BME280;54380;47.770;11.150;2023-03-21T07:28:34;94944.88;;;9.85;59.25
67545;BME280;54380;47.770;11.150;2023-03-21T07:31:04;94940.22;;;9.92;59.41
67545;BME280;54380;47.770;11.150;2023-03-21T07:33:32;94939.78;;;10.00;59.70
67545;BME280;54380;47.770;11.150;2023-03-21T07:36:00;94943.31;;;10.06;60.15
67545;BME280;54380;47.770;11.150;2023-03-21T07:38:28;94942.03;;;10.08;59.25
67545;BME280;54380;47.770;11.150;2023-03-21T07:40:59;94940.75;;;10.16;58.72
67545;BME280;54380;47.770;11.150;2023-03-21T07:43:29;94938.19;;;10.21;59.06
67545;BME280;54380;47.770;11.150;2023-03-21T07:45:58;94937.81;;;10.29;58.69
67545;BME280;54380;47.770;11.150;2023-03-21T07:48:26;94942.66;;;10.38;58.86
67545;BME280;54380;47.770;11.150;2023-03-21T07:50:52;94937.97;;;10.45;58.62
67545;BME280;54380;47.770;11.150;2023-03-21T07:53:20;94938.28;;;10.48;57.63
67545;BME280;54380;47.770;11.150;2023-03-21T07:55:49;94934.78;;;10.43;57.02
67545;BME280;54380;47.770;11.150;2023-03-21T07:58:17;94939.31;;;10.47;58.47
67545;BME280;54380;47.770;11.150;2023-03-21T08:00:44;94938.63;;;10.57;58.28
67545;BME280;54380;47.770;11.150;2023-03-21T08:03:10;94938.19;;;10.65;58.33
67545;BME280;54380;47.770;11.150;2023-03-21T08:05:37;94944.31;;;10.71;58.59
67545;BME280;54380;47.770;11.150;2023-03-21T08:08:05;94946.22;;;10.75;58.56
67545;BME280;54380;47.770;11.150;2023-03-21T08:10:32;94939.63;;;10.78;57.74
67545;BME280;54380;47.770;11.150;2023-03-21T08:12:59;94940.94;;;10.75;57.66
67545;BME280;54380;47.770;11.150;2023-03-21T08:15:27;94942.31;;;10.83;57.75
67545;BME280;54380;47.770;11.150;2023-03-21T08:17:55;94944.47;;;10.86;57.78
67545;BME280;54380;47.770;11.150;2023-03-21T08:20:23;94940.00;;;10.92;58.14
67545;BME280;54380;47.770;11.150;2023-03-21T08:22:50;94946.13;;;10.97;57.94
67545;BME280;54380;47.770;11.150;2023-03-21T08:25:18;94947.28;;;11.07;57.98
67545;BME280;54380;47.770;11.150;2023-03-21T08:27:48;94943.34;;;11.09;57.32
67545;BME280;54380;47.770;11.150;2023-03-21T08:30:16;94946.28;;;11.13;57.42
67545;BME280;54380;47.770;11.150;2023-03-21T08:32:44;94948.97;;;11.18;57.40
67545;BME280;54380;47.770;11.150;2023-03-21T08:35:14;94935.78;;;11.23;57.14
67545;BME280;54380;47.770;11.150;2023-03-21T08:37:42;94940.59;;;11.31;57.09
67545;BME280;54380;47.770;11.150;2023-03-21T08:40:11;94930.63;;;11.38;56.91
67545;BME280;54380;47.770;11.150;2023-03-21T08:42:39;94936.97;;;11.42;56.58
67545;BME280;54380;47.770;11.150;2023-03-21T08:45:07;94938.09;;;11.47;57.00
67545;BME280;54380;47.770;11.150;2023-03-21T08:47:34;94932.31;;;11.55;57.55
67545;BME280;54380;47.770;11.150;2023-03-21T08:50:03;94934.75;;;11.61;56.93
67545;BME280;54380;47.770;11.150;2023-03-21T08:52:32;94924.44;;;11.65;56.98
67545;BME280;54380;47.770;11.150;2023-03-21T08:54:59;94922.34;;;11.67;57.17
67545;BME280;54380;47.770;11.150;2023-03-21T08:57:27;94924.25;;;11.72;57.12
67545;BME280;54380;47.770;11.150;2023-03-21T08:59:54;94920.81;;;11.76;56.87
67545;BME280;54380;47.770;11.150;2023-03-21T09:02:21;94923.47;;;11.81;56.64
67545;BME280;54380;47.770;11.150;2023-03-21T09:04:48;94922.50;;;11.88;56.98
67545;BME280;54380;47.770;11.150;2023-03-21T09:07:16;94924.66;;;11.96;56.84
67545;BME280;54380;47.770;11.150;2023-03-21T09:09:43;94918.56;;;12.00;56.89
67545;BME280;54380;47.770;11.150;2023-03-21T09:12:16;94917.28;;;12.08;56.84
67545;BME280;54380;47.770;11.150;2023-03-21T09:14:42;94917.59;;;12.12;56.63
67545;BME280;54380;47.770;11.150;2023-03-21T09:17:10;94912.56;;;12.15;56.46
67545;BME280;54380;47.770;11.150;2023-03-21T09:19:37;94911.00;;;12.19;56.55
67545;BME280;54380;47.770;11.150;2023-03-21T09:22:04;94912.34;;;12.22;56.57
67545;BME280;54380;47.770;11.150;2023-03-21T09:24:32;94908.88;;;12.26;55.92
67545;BME280;54380;47.770;11.150;2023-03-21T09:26:59;94903.91;;;12.30;56.12
67545;BME280;54380;47.770;11.150;2023-03-21T09:29:26;94910.78;;;12.36;56.13
67545;BME280;54380;47.770;11.150;2023-03-21T09:31:53;94909.25;;;12.45;55.65
67545;BME280;54380;47.770;11.150;2023-03-21T09:34:20;94909.75;;;12.47;55.37
67545;BME280;54380;47.770;11.150;2023-03-21T09:36:47;94911.38;;;12.54;55.72
67545;BME280;54380;47.770;11.150;2023-03-21T09:39:14;94908.22;;;12.62;55.50
67545;BME280;54380;47.770;11.150;2023-03-21T09:41:53;94908.75;;;12.74;55.72
67545;BME280;54380;47.770;11.150;2023-03-21T09:44:31;94898.69;;;12.86;55.51
67545;BME280;54380;47.770;11.150;2023-03-21T09:47:08;94904.00;;;12.96;55.36
67545;BME280;54380;47.770;11.150;2023-03-21T09:49:45;94899.50;;;13.07;54.89
67545;BME280;54380;47.770;11.150;2023-03-21T09:52:18;94901.63;;;13.10;54.51
67545;BME280;54380;47.770;11.150;2023-03-21T09:54:47;94893.97;;;13.14;54.54
67545;BME280;54380;47.770;11.150;2023-03-21T09:57:24;94897.41;;;13.20;54.24
67545;BME280;54380;47.770;11.150;2023-03-21T09:59:53;94897.91;;;13.22;53.94
67545;BME280;54380;47.770;11.150;2023-03-21T10:02:34;94892.88;;;13.20;53.15
67545;BME280;54380;47.770;11.150;2023-03-21T10:05:10;94890.25;;;13.20;53.41
67545;BME280;54380;47.770;11.150;2023-03-21T10:07:40;94892.34;;;13.23;53.31
67545;BME280;54380;47.770;11.150;2023-03-21T10:10:14;94896.34;;;13.31;52.92
67545;BME280;54380;47.770;11.150;2023-03-21T10:12:46;94893.69;;;13.36;52.79
67545;BME280;54380;47.770;11.150;2023-03-21T10:15:17;94891.59;;;13.38;52.49
67545;BME280;54380;47.770;11.150;2023-03-21T10:17:50;94887.59;;;13.41;52.20
67545;BME280;54380;47.770;11.150;2023-03-21T10:20:20;94884.13;;;13.40;52.31
67545;BME280;54380;47.770;11.150;2023-03-21T10:22:49;94887.31;;;13.42;51.65
67545;BME280;54380;47.770;11.150;2023-03-21T10:25:20;94884.97;;;13.41;51.47
67545;BME280;54380;47.770;11.150;2023-03-21T10:27:50;94884.94;;;13.46;51.62
67545;BME280;54380;47.770;11.150;2023-03-21T10:30:27;94880.13;;;13.53;52.04
67545;BME280;54380;47.770;11.150;2023-03-21T10:32:58;94876.16;;;13.55;51.76
67545;BME280;54380;47.770;11.150;2023-03-21T10:35:31;94869.81;;;13.56;50.82
67545;BME280;54380;47.770;11.150;2023-03-21T10:38:03;94871.94;;;13.54;51.49
67545;BME280;54380;47.770;11.150;2023-03-21T10:40:30;94871.63;;;13.61;51.71
67545;BME280;54380;47.770;11.150;2023-03-21T10:43:17;94867.13;;;13.72;51.43
67545;BME280;54380;47.770;11.150;2023-03-21T10:45:45;94862.84;;;13.76;51.36
67545;BME280;54380;47.770;11.150;2023-03-21T10:48:13;94864.97;;;13.79;50.78
67545;BME280;54380;47.770;11.150;2023-03-21T10:50:40;94862.59;;;13.82;50.90
67545;BME280;54380;47.770;11.150;2023-03-21T10:53:15;94861.75;;;13.87;51.40
67545;BME280;54380;47.770;11.150;2023-03-21T10:55:45;94859.63;;;13.89;50.74
67545;BME280;54380;47.770;11.150;2023-03-21T10:58:17;94861.47;;;13.94;51.17
67545;BME280;54380;47.770;11.150;2023-03-21T11:00:54;94869.41;;;13.99;51.20
67545;BME280;54380;47.770;11.150;2023-03-21T11:03:26;94858.22;;;14.07;51.12
67545;BME280;54380;47.770;11.150;2023-03-21T11:06:00;94853.16;;;14.11;50.79
67545;BME280;54380;47.770;11.150;2023-03-21T11:08:28;94855.00;;;14.15;51.30
67545;BME280;54380;47.770;11.150;2023-03-21T11:11:00;94856.28;;;14.28;50.69
67545;BME280;54380;47.770;11.150;2023-03-21T11:13:36;94857.28;;;14.32;50.49
67545;BME280;54380;47.770;11.150;2023-03-21T11:16:08;94849.06;;;14.34;50.58
67545;BME280;54380;47.770;11.150;2023-03-21T11:18:41;94842.19;;;14.33;50.11
67545;BME280;54380;47.770;11.150;2023-03-21T11:21:11;94844.28;;;14.36;50.35
67545;BME280;54380;47.770;11.150;2023-03-21T11:23:40;94826.66;;;14.50;50.44
67545;BME280;54380;47.770;11.150;2023-03-21T11:26:11;94832.94;;;14.69;50.47
67545;BME280;54380;47.770;11.150;2023-03-21T11:28:45;94831.19;;;14.89;49.57
67545;BME280;54380;47.770;11.150;2023-03-21T11:31:11;94833.34;;;14.87;49.14
67545;BME280;54380;47.770;11.150;2023-03-21T11:33:41;94829.88;;;14.86;49.60
67545;BME280;54380;47.770;11.150;2023-03-21T11:36:30;94827.97;;;14.92;49.24
67545;BME280;54380;47.770;11.150;2023-03-21T11:39:12;94825.03;;;14.99;49.68
67545;BME280;54380;47.770;11.150;2023-03-21T11:41:40;94822.53;;;15.07;49.95
67545;BME280;54380;47.770;11.150;2023-03-21T11:44:24;94807.03;;;15.20;49.37
67545;BME280;54380;47.770;11.150;2023-03-21T11:46:52;94803.19;;;15.31;48.82
67545;BME280;54380;47.770;11.150;2023-03-21T11:49:20;94793.06;;;15.33;47.63
67545;BME280;54380;47.770;11.150;2023-03-21T11:51:51;94789.09;;;15.30;48.46
67545;BME280;54380;47.770;11.150;2023-03-21T11:54:26;94791.19;;;15.33;48.29
67545;BME280;54380;47.770;11.150;2023-03-21T11:57:00;94791.34;;;15.42;48.05
67545;BME280;54380;47.770;11.150;2023-03-21T11:59:37;94783.06;;;15.49;47.29
67545;BME280;54380;47.770;11.150;2023-03-21T12:02:25;94783.72;;;15.59;47.20
67545;BME280;54380;47.770;11.150;2023-03-21T12:05:02;94780.41;;;15.73;46.60
67545;BME280;54380;47.770;11.150;2023-03-21T12:07:41;94779.31;;;15.74;46.28
67545;BME280;54380;47.770;11.150;2023-03-21T12:10:30;94771.91;;;15.71;46.01
67545;BME280;54380;47.770;11.150;2023-03-21T12:13:09;94767.38;;;15.71;46.24
67545;BME280;54380;47.770;11.150;2023-03-21T12:15:43;94771.41;;;15.69;46.05
67545;BME280;54380;47.770;11.150;2023-03-21T12:18:32;94768.97;;;15.72;46.33
67545;BME280;54380;47.770;11.150;2023-03-21T12:21:05;94759.50;;;15.85;46.35
67545;BME280;54380;47.770;11.150;2023-03-21T12:23:44;94765.69;;;15.99;46.79
67545;BME280;54380;47.770;11.150;2023-03-21T12:26:20;94758.88;;;16.12;46.17
67545;BME280;54380;47.770;11.150;2023-03-21T12:29:07;94758.81;;;16.17;45.05
67545;BME280;54380;47.770;11.150;2023-03-21T12:31:49;94751.81;;;16.21;45.91
67545;BME280;54380;47.770;11.150;2023-03-21T12:34:43;94745.63;;;16.26;45.57
67545;BME280;54380;47.770;11.150;2023-03-21T12:37:17;94743.25;;;16.24;45.03
67545;BME280;54380;47.770;11.150;2023-03-21T12:39:49;94734.09;;;16.31;45.04
67545;BME280;54380;47.770;11.150;2023-03-21T12:42:38;94730.06;;;16.33;44.94
67545;BME280;54380;47.770;11.150;2023-03-21T12:45:11;94730.88;;;16.34;44.98
67545;BME280;54380;47.770;11.150;2023-03-21T12:47:47;94730.19;;;16.42;45.16
67545;BME280;54380;47.770;11.150;2023-03-21T12:50:18;94731.81;;;16.43;44.74
67545;BME280;54380;47.770;11.150;2023-03-21T12:52:52;94732.88;;;16.42;44.55
67545;BME280;54380;47.770;11.150;2023-03-21T12:55:23;94729.94;;;16.43;44.70
67545;BME280;54380;47.770;11.150;2023-03-21T12:57:57;94729.41;;;16.41;43.86
67545;BME280;54380;47.770;11.150;2023-03-21T13:00:27;94714.09;;;16.33;44.07
67545;BME280;54380;47.770;11.150;2023-03-21T13:03:02;94720.13;;;16.39;44.35
67545;BME280;54380;47.770;11.150;2023-03-21T13:05:33;94714.81;;;16.39;44.34
67545;BME280;54380;47.770;11.150;2023-03-21T13:08:05;94717.47;;;16.39;43.78
67545;BME280;54380;47.770;11.150;2023-03-21T13:10:34;94707.59;;;16.39;44.49
67545;BME280;54380;47.770;11.150;2023-03-21T13:13:11;94712.56;;;16.46;44.44
67545;BME280;54380;47.770;11.150;2023-03-21T13:15:51;94704.69;;;16.55;44.84
67545;BME280;54380;47.770;11.150;2023-03-21T13:18:30;94710.13;;;16.63;45.14
67545;BME280;54380;47.770;11.150;2023-03-21T13:21:00;94703.16;;;16.67;44.73
67545;BME280;54380;47.770;11.150;2023-03-21T13:23:34;94701.78;;;16.70;44.93
67545;BME280;54380;47.770;11.150;2023-03-21T13:26:01;94696.63;;;16.74;45.18
67545;BME280;54380;47.770;11.150;2023-03-21T13:28:32;94708.34;;;16.78;44.44
67545;BME280;54380;47.770;11.150;2023-03-21T13:31:20;94700.03;;;16.79;44.26